Pittsburgh, Pennsylvania
Traffic Map
Current Weather Conditions
Pittsburgh, Pennsylvania
Broken Clouds
Broken Clouds
63°
Feels Like: 63°
Wind Chill: 63° Ceiling: 11000
Heat Index: 63° Visibility: 10mi
Dew Point: 58° Wind: 8mph
Humidity: 84% Direction: 200° (SSW)
Pressure: 30.09in Gusts: 0mph
Raw Report DataKAGC 291153Z 20007KT 10SM FEW019 SCT090 BKN110 17/14 A3009 RMK AO2 RAB25E47 SLP190 P0001 60012 70025 T01720144 10172 20117 53044 $
Traffic Incident Summary
Active as of:
Severity:
Category:
InformationThere was an issue retrieving the traffic information for this location. Please try a different location or try again shortly.
Advertisements
Track Severe Weather on mobile